createdAt,value
2023-07-16T00:01:47.735Z,21.44
2023-07-16T00:04:14.802Z,21.40
2023-07-16T00:06:41.608Z,21.34
2023-07-16T00:09:08.259Z,21.28
2023-07-16T00:11:34.826Z,21.20
2023-07-16T00:14:02.908Z,21.17
2023-07-16T00:16:30.063Z,21.14
2023-07-16T00:18:56.765Z,21.08
2023-07-16T00:21:23.521Z,21.00
2023-07-16T00:23:50.195Z,20.93
2023-07-16T00:26:17.412Z,20.89
2023-07-16T00:28:44.185Z,20.79
2023-07-16T00:31:11.309Z,20.73
2023-07-16T00:33:37.997Z,20.69
2023-07-16T00:36:04.791Z,20.66
2023-07-16T00:38:31.904Z,20.68
2023-07-16T00:40:58.606Z,20.70
2023-07-16T00:43:25.231Z,20.68
2023-07-16T00:45:51.924Z,20.76
2023-07-16T00:48:20.063Z,20.76
2023-07-16T00:50:46.934Z,20.76
2023-07-16T00:53:13.648Z,20.75
2023-07-16T00:55:40.569Z,20.77
2023-07-16T00:58:08.337Z,20.77
2023-07-16T01:00:40.080Z,20.80
2023-07-16T01:03:09.772Z,20.81
2023-07-16T01:05:44.400Z,20.89
2023-07-16T01:08:13.228Z,20.94
2023-07-16T01:10:40.826Z,20.99
2023-07-16T01:13:07.632Z,21.18
2023-07-16T01:15:34.305Z,21.23
2023-07-16T01:18:01.409Z,21.34
2023-07-16T01:20:28.855Z,21.41
2023-07-16T01:23:17.373Z,21.49
2023-07-16T01:25:53.273Z,21.45
2023-07-16T01:28:43.247Z,21.54
2023-07-16T01:31:11.978Z,21.62
2023-07-16T01:33:42.144Z,21.72
2023-07-16T01:36:09.574Z,21.79
2023-07-16T01:38:37.287Z,21.95
2023-07-16T01:41:03.937Z,21.98
2023-07-16T01:43:30.550Z,22.05
2023-07-16T01:45:57.413Z,21.95
2023-07-16T01:48:33.177Z,21.74
2023-07-16T01:51:00.510Z,21.49
2023-07-16T01:53:27.219Z,21.42
2023-07-16T01:55:54.021Z,21.28
2023-07-16T01:58:20.662Z,21.28
2023-07-16T02:00:49.278Z,21.24
2023-07-16T02:03:16.137Z,21.10
2023-07-16T02:05:42.925Z,21.06
2023-07-16T02:08:09.559Z,21.08
2023-07-16T02:10:36.208Z,21.03
2023-07-16T02:13:02.953Z,21.00
2023-07-16T02:15:29.631Z,21.00
2023-07-16T02:17:58.279Z,21.07
2023-07-16T02:20:27.039Z,21.07
2023-07-16T02:22:54.160Z,21.07
2023-07-16T02:25:20.793Z,21.10
2023-07-16T02:27:47.363Z,21.07
2023-07-16T02:30:16.211Z,21.11
2023-07-16T02:32:42.946Z,21.08
2023-07-16T02:35:10.138Z,20.99
2023-07-16T02:37:36.914Z,20.81
2023-07-16T02:40:04.197Z,20.63
2023-07-16T02:42:30.836Z,20.53
2023-07-16T02:44:57.439Z,20.42
2023-07-16T02:47:24.130Z,20.36
2023-07-16T02:49:53.708Z,20.31
2023-07-16T02:52:20.625Z,20.25
2023-07-16T02:54:47.231Z,20.21
2023-07-16T02:57:13.821Z,20.17
2023-07-16T02:59:40.414Z,20.10
2023-07-16T03:02:07.050Z,20.05
2023-07-16T03:04:33.666Z,20.05
2023-07-16T03:07:00.321Z,20.02
2023-07-16T03:09:26.965Z,19.98
2023-07-16T03:11:53.727Z,19.95
2023-07-16T03:14:20.561Z,19.94
2023-07-16T03:16:47.249Z,19.90
2023-07-16T03:19:13.974Z,19.85
2023-07-16T03:21:40.711Z,19.88
2023-07-16T03:24:07.443Z,19.84
2023-07-16T03:26:34.059Z,19.80
2023-07-16T03:29:00.726Z,19.77
2023-07-16T03:31:27.479Z,19.88
2023-07-16T03:33:54.218Z,19.90
2023-07-16T03:36:20.887Z,19.85
2023-07-16T03:38:47.650Z,19.73
2023-07-16T03:41:14.325Z,19.75
2023-07-16T03:43:40.943Z,19.74
2023-07-16T03:46:09.263Z,19.77
2023-07-16T03:48:36.908Z,19.64
2023-07-16T03:51:04.181Z,19.60
2023-07-16T03:53:30.913Z,19.63
2023-07-16T03:55:57.564Z,19.61
2023-07-16T03:58:24.346Z,19.69
2023-07-16T04:00:51.602Z,19.61
2023-07-16T04:03:18.381Z,19.60
2023-07-16T04:05:45.047Z,19.67
2023-07-16T04:08:11.702Z,19.67
2023-07-16T04:10:38.349Z,19.69
2023-07-16T04:13:04.948Z,19.75
2023-07-16T04:15:31.629Z,19.74
2023-07-16T04:17:58.322Z,19.75
2023-07-16T04:20:25.945Z,19.78
2023-07-16T04:22:52.705Z,19.74
2023-07-16T04:25:19.998Z,19.78
2023-07-16T04:27:46.769Z,19.85
2023-07-16T04:30:13.505Z,19.78
2023-07-16T04:32:40.176Z,19.75
2023-07-16T04:35:07.352Z,19.73
2023-07-16T04:37:34.029Z,19.77
2023-07-16T04:40:00.652Z,19.75
2023-07-16T04:42:27.300Z,19.73
2023-07-16T04:44:54.155Z,19.63
2023-07-16T04:47:20.869Z,19.63
2023-07-16T04:49:47.664Z,19.66
2023-07-16T04:52:14.426Z,19.64
2023-07-16T04:54:41.205Z,19.64
2023-07-16T04:57:08.568Z,19.69
2023-07-16T04:59:35.763Z,19.74
2023-07-16T05:02:06.359Z,19.73
2023-07-16T05:04:34.016Z,19.74
2023-07-16T05:07:05.256Z,19.77
2023-07-16T05:09:32.134Z,19.81
2023-07-16T05:11:59.255Z,19.87
2023-07-16T05:14:28.175Z,19.88
2023-07-16T05:16:56.879Z,19.94
2023-07-16T05:19:23.968Z,20.05
2023-07-16T05:21:50.695Z,20.14
2023-07-16T05:24:17.327Z,20.24
2023-07-16T05:26:44.163Z,20.29
2023-07-16T05:29:10.769Z,20.43
2023-07-16T05:31:37.498Z,20.53
2023-07-16T05:34:04.198Z,20.52
2023-07-16T05:36:30.893Z,20.66
2023-07-16T05:38:57.545Z,20.56
2023-07-16T05:41:24.489Z,20.57
2023-07-16T05:43:51.282Z,20.38
2023-07-16T05:46:18.351Z,20.57
2023-07-16T05:48:45.396Z,20.52
2023-07-16T05:51:12.183Z,20.69
2023-07-16T05:53:38.859Z,20.81
2023-07-16T05:56:06.069Z,21.01
2023-07-16T05:58:32.793Z,21.15
2023-07-16T06:00:59.443Z,21.28
2023-07-16T06:03:26.060Z,21.40
2023-07-16T06:05:52.641Z,21.45
2023-07-16T06:08:19.714Z,21.66
2023-07-16T06:10:46.496Z,21.68
2023-07-16T06:13:13.169Z,21.65
2023-07-16T06:15:39.843Z,22.00
2023-07-16T06:18:06.563Z,22.71
2023-07-16T06:20:33.227Z,23.84
2023-07-16T06:22:59.871Z,24.39
2023-07-16T06:25:26.522Z,24.59
2023-07-16T06:27:53.154Z,24.82
2023-07-16T06:30:19.956Z,25.09
2023-07-16T06:32:46.544Z,25.46
2023-07-16T06:35:13.157Z,26.52
2023-07-16T06:37:40.429Z,26.50
2023-07-16T06:40:07.979Z,27.27
2023-07-16T06:42:34.750Z,26.72
2023-07-16T06:45:01.376Z,27.37
2023-07-16T06:47:27.964Z,26.90
2023-07-16T06:49:54.629Z,26.05
2023-07-16T06:52:28.352Z,25.17
2023-07-16T06:54:56.194Z,25.57
2023-07-16T06:57:23.767Z,24.90
2023-07-16T06:59:50.728Z,24.54
2023-07-16T07:02:18.106Z,26.16
2023-07-16T07:04:44.746Z,25.57
2023-07-16T07:07:11.374Z,25.60
2023-07-16T07:09:38.210Z,24.75
2023-07-16T07:12:04.951Z,24.13
2023-07-16T07:14:32.953Z,25.63
2023-07-16T07:16:59.653Z,26.05
2023-07-16T07:19:27.405Z,25.16
2023-07-16T07:21:54.117Z,27.17
2023-07-16T07:24:20.846Z,28.65
2023-07-16T07:26:47.526Z,26.80
2023-07-16T07:29:14.699Z,25.99
2023-07-16T07:31:41.510Z,25.15
2023-07-16T07:34:08.277Z,25.61
2023-07-16T07:36:34.884Z,26.43
2023-07-16T07:39:01.663Z,26.02
2023-07-16T07:41:28.463Z,27.07
2023-07-16T07:43:55.107Z,26.19
2023-07-16T07:46:21.860Z,25.81
2023-07-16T07:48:48.503Z,25.12
2023-07-16T07:51:15.121Z,26.18
2023-07-16T07:53:41.693Z,28.37
2023-07-16T07:56:08.775Z,28.96
2023-07-16T07:58:35.468Z,29.40
2023-07-16T08:01:08.844Z,30.79
2023-07-16T08:03:36.045Z,31.99
2023-07-16T08:06:02.842Z,32.18
2023-07-16T08:08:29.768Z,31.06
2023-07-16T08:10:56.825Z,32.71
2023-07-16T08:13:23.563Z,33.69
2023-07-16T08:15:50.235Z,29.98
2023-07-16T08:18:17.011Z,30.48
2023-07-16T08:20:43.652Z,30.11
2023-07-16T08:23:10.752Z,31.54
2023-07-16T08:25:37.653Z,32.23
2023-07-16T08:28:04.833Z,32.28
2023-07-16T08:30:33.378Z,32.73
2023-07-16T08:33:00.236Z,33.41
2023-07-16T08:35:27.025Z,33.97
2023-07-16T08:37:54.225Z,34.46
2023-07-16T08:40:22.138Z,34.74
2023-07-16T08:42:50.121Z,33.72
2023-07-16T08:45:22.388Z,33.01
2023-07-16T08:47:50.233Z,31.96
2023-07-16T08:50:17.950Z,30.90
2023-07-16T08:52:45.368Z,31.52
2023-07-16T08:55:12.019Z,32.29
2023-07-16T08:57:40.164Z,31.02
2023-07-16T09:00:08.676Z,30.69
2023-07-16T09:02:35.337Z,32.50
2023-07-16T09:05:02.143Z,32.81
2023-07-16T09:07:28.800Z,32.71
2023-07-16T09:09:59.527Z,31.86
2023-07-16T09:12:26.876Z,31.68
2023-07-16T09:14:53.551Z,31.85
2023-07-16T09:17:25.033Z,32.86
2023-07-16T09:19:52.618Z,33.70
2023-07-16T09:22:20.607Z,33.14
2023-07-16T09:24:48.354Z,34.15
2023-07-16T09:27:15.415Z,33.73
2023-07-16T09:29:42.292Z,34.32
2023-07-16T09:32:09.294Z,35.01
2023-07-16T09:34:36.005Z,32.94
2023-07-16T09:37:02.889Z,32.11
2023-07-16T09:39:29.644Z,31.47
2023-07-16T09:41:59.356Z,29.93
2023-07-16T09:44:26.100Z,29.32
2023-07-16T09:46:52.858Z,30.72
2023-07-16T09:49:54.256Z,31.92
2023-07-16T09:52:21.428Z,33.95
2023-07-16T09:54:57.752Z,33.85
2023-07-16T09:57:27.581Z,34.61
2023-07-16T09:59:56.871Z,35.38
2023-07-16T10:02:23.852Z,33.44
2023-07-16T10:04:50.541Z,33.12
2023-07-16T10:07:25.467Z,33.18
2023-07-16T10:09:55.333Z,32.36
2023-07-16T10:12:22.851Z,33.73
2023-07-16T10:14:57.708Z,33.83
2023-07-16T10:17:26.386Z,34.83
2023-07-16T10:19:56.696Z,32.66
2023-07-16T10:22:44.046Z,34.75
2023-07-16T10:25:31.110Z,35.53
2023-07-16T10:27:57.795Z,31.89
2023-07-16T10:30:24.434Z,32.84
2023-07-16T10:32:53.609Z,34.88
2023-07-16T10:35:20.536Z,34.65
2023-07-16T10:37:47.215Z,35.19
2023-07-16T10:40:15.066Z,35.16
2023-07-16T10:42:44.538Z,34.77
2023-07-16T10:45:11.688Z,36.03
2023-07-16T10:47:39.631Z,32.70
2023-07-16T10:50:09.040Z,33.76
2023-07-16T10:52:36.847Z,33.28
2023-07-16T10:55:03.982Z,34.44
2023-07-16T10:57:30.779Z,32.59
2023-07-16T11:03:45.049Z,34.85
2023-07-16T11:06:13.054Z,34.78
2023-07-16T11:08:39.778Z,36.21
2023-07-16T11:11:06.412Z,35.63
2023-07-16T11:13:36.056Z,35.83
2023-07-16T11:16:10.140Z,34.68
2023-07-16T11:18:39.028Z,34.94
2023-07-16T11:21:06.131Z,31.30
2023-07-16T11:23:36.300Z,32.19
2023-07-16T11:26:04.410Z,31.38
2023-07-16T11:28:41.649Z,32.56
2023-07-16T11:31:13.560Z,33.39
2023-07-16T11:33:43.685Z,33.59
2023-07-16T11:36:10.439Z,33.34
2023-07-16T11:38:38.600Z,32.44
2023-07-16T11:44:50.196Z,30.63
2023-07-16T11:47:16.885Z,30.65
2023-07-16T11:49:43.540Z,30.55
2023-07-16T11:52:10.172Z,31.44
2023-07-16T11:54:36.785Z,31.23
2023-07-16T11:57:03.581Z,30.53
2023-07-16T11:59:30.219Z,30.89
2023-07-16T12:01:56.928Z,31.30
2023-07-16T12:04:23.630Z,30.10
2023-07-16T12:06:50.225Z,30.36
2023-07-16T12:09:16.832Z,30.31
2023-07-16T12:11:43.473Z,31.61
2023-07-16T12:14:10.187Z,32.20
2023-07-16T12:16:36.984Z,29.83
2023-07-16T12:19:03.683Z,30.43
2023-07-16T12:21:30.406Z,31.26
2023-07-16T12:23:57.055Z,31.93
2023-07-16T12:26:23.768Z,32.43
2023-07-16T12:28:50.473Z,32.50
2023-07-16T12:31:21.313Z,30.59
2023-07-16T12:33:48.400Z,30.80
2023-07-16T12:36:16.301Z,31.31
2023-07-16T12:38:43.279Z,31.98
2023-07-16T12:41:10.584Z,33.04
2023-07-16T12:43:37.338Z,33.62
2023-07-16T12:46:05.360Z,33.65
2023-07-16T12:48:32.942Z,33.85
2023-07-16T12:50:59.997Z,34.78
2023-07-16T12:53:26.977Z,32.92
2023-07-16T12:55:53.953Z,33.54
2023-07-16T12:58:20.610Z,32.77
2023-07-16T13:00:47.408Z,32.71
2023-07-16T13:03:17.585Z,33.99
2023-07-16T13:05:46.090Z,32.11
2023-07-16T13:08:12.760Z,31.48
2023-07-16T13:10:40.374Z,32.76
2023-07-16T13:13:08.885Z,33.85
2023-07-16T13:15:35.693Z,33.92
2023-07-16T13:18:02.503Z,34.32
2023-07-16T13:20:30.798Z,33.11
2023-07-16T13:22:58.564Z,32.32
2023-07-16T13:25:25.305Z,31.48
2023-07-16T13:27:54.018Z,30.65
2023-07-16T13:30:20.868Z,31.03
2023-07-16T13:32:49.588Z,31.23
2023-07-16T13:35:17.035Z,31.82
2023-07-16T13:37:43.860Z,31.72
2023-07-16T13:40:10.933Z,30.97
2023-07-16T13:42:37.618Z,30.96
2023-07-16T13:45:05.319Z,31.13
2023-07-16T13:47:31.989Z,30.42
2023-07-16T13:49:59.255Z,29.33
2023-07-16T13:52:25.835Z,29.46
2023-07-16T13:54:52.546Z,30.32
2023-07-16T13:57:19.322Z,29.69
2023-07-16T13:59:46.028Z,30.59
2023-07-16T14:02:12.775Z,29.84
2023-07-16T14:04:39.581Z,30.25
2023-07-16T14:07:06.262Z,30.07
2023-07-16T14:09:32.861Z,29.18
2023-07-16T14:11:59.632Z,29.16
2023-07-16T14:14:27.315Z,28.99
2023-07-16T14:16:54.383Z,28.64
2023-07-16T14:19:21.091Z,28.63
2023-07-16T14:21:47.882Z,28.43
2023-07-16T14:24:14.621Z,28.98
2023-07-16T14:26:41.369Z,29.84
2023-07-16T14:29:08.145Z,29.69
2023-07-16T14:31:34.829Z,28.37
2023-07-16T14:34:01.518Z,28.57
2023-07-16T14:36:28.556Z,28.24
2023-07-16T14:38:56.103Z,28.14
2023-07-16T14:41:22.804Z,28.57
2023-07-16T14:43:50.993Z,28.60
2023-07-16T14:46:18.694Z,28.96
2023-07-16T14:48:46.987Z,29.19
2023-07-16T14:51:14.227Z,28.90
2023-07-16T14:53:41.123Z,28.92
2023-07-16T14:56:07.900Z,28.63
2023-07-16T14:58:38.287Z,28.72
2023-07-16T15:01:08.737Z,29.03
2023-07-16T15:03:41.564Z,29.60
2023-07-16T15:06:08.722Z,29.87
2023-07-16T15:08:35.666Z,29.19
2023-07-16T15:11:03.900Z,29.57
2023-07-16T15:13:30.689Z,29.57
2023-07-16T15:16:00.280Z,29.66
2023-07-16T15:18:28.286Z,29.34
2023-07-16T15:21:00.263Z,29.16
2023-07-16T15:23:28.084Z,29.09
2023-07-16T15:26:07.820Z,28.18
2023-07-16T15:28:35.598Z,28.20
2023-07-16T15:31:03.006Z,28.06
2023-07-16T15:33:31.200Z,28.21
2023-07-16T15:35:58.678Z,28.23
2023-07-16T15:38:25.306Z,28.58
2023-07-16T15:40:53.777Z,28.78
2023-07-16T15:43:20.433Z,28.75
2023-07-16T15:45:47.102Z,28.91
2023-07-16T15:48:14.084Z,28.44
2023-07-16T15:50:41.948Z,28.30
2023-07-16T15:53:08.747Z,28.44
2023-07-16T15:55:36.244Z,28.50
2023-07-16T15:58:03.360Z,28.26
2023-07-16T16:00:30.122Z,27.66
2023-07-16T16:02:56.966Z,27.37
2023-07-16T16:05:24.091Z,27.07
2023-07-16T16:08:16.820Z,27.35
2023-07-16T16:10:48.253Z,27.55
2023-07-16T16:13:16.084Z,27.75
2023-07-16T16:15:43.639Z,27.86
2023-07-16T16:18:12.369Z,28.02
2023-07-16T16:20:40.048Z,27.78
2023-07-16T16:23:07.284Z,27.62
2023-07-16T16:25:37.829Z,27.52
2023-07-16T16:28:06.736Z,27.49
2023-07-16T16:30:35.127Z,27.45
2023-07-16T16:33:04.237Z,27.42
2023-07-16T16:35:37.032Z,27.41
2023-07-16T16:38:03.883Z,27.20
2023-07-16T16:40:31.888Z,27.33
2023-07-16T16:42:58.735Z,27.34
2023-07-16T16:45:25.421Z,27.28
2023-07-16T16:47:52.474Z,27.08
2023-07-16T16:50:19.541Z,27.23
2023-07-16T16:52:46.346Z,27.27
2023-07-16T16:55:13.283Z,27.17
2023-07-16T16:57:41.210Z,27.05
2023-07-16T17:00:13.572Z,26.98
2023-07-16T17:02:41.835Z,27.00
2023-07-16T17:05:10.339Z,26.83
2023-07-16T17:07:37.347Z,26.72
2023-07-16T17:10:04.622Z,26.69
2023-07-16T17:12:31.338Z,26.70
2023-07-16T17:14:58.050Z,26.64
2023-07-16T17:17:24.878Z,26.52
2023-07-16T17:19:56.295Z,26.53
2023-07-16T17:22:23.103Z,26.49
2023-07-16T17:24:50.695Z,26.43
2023-07-16T17:27:17.678Z,26.40
2023-07-16T17:29:48.127Z,26.39
2023-07-16T17:32:15.317Z,26.39
2023-07-16T17:34:42.667Z,26.31
2023-07-16T17:37:13.312Z,26.25
2023-07-16T17:39:40.180Z,26.18
2023-07-16T17:42:07.203Z,26.14
2023-07-16T17:44:34.036Z,26.05
2023-07-16T17:47:01.013Z,25.95
2023-07-16T17:49:28.262Z,25.88
2023-07-16T17:51:55.853Z,25.84
2023-07-16T17:54:23.305Z,25.77
2023-07-16T17:56:54.483Z,25.74
2023-07-16T17:59:22.035Z,25.60
2023-07-16T18:01:50.861Z,25.51
2023-07-16T18:04:18.594Z,25.50
2023-07-16T18:06:45.472Z,25.46
2023-07-16T18:09:14.959Z,25.33
2023-07-16T18:11:45.792Z,25.15
2023-07-16T18:14:15.032Z,25.12
2023-07-16T18:16:42.468Z,25.06
2023-07-16T18:19:13.680Z,25.06
2023-07-16T18:21:43.611Z,24.97
2023-07-16T18:24:19.229Z,24.89
2023-07-16T18:26:46.613Z,24.76
2023-07-16T18:29:13.386Z,24.58
2023-07-16T18:31:40.102Z,24.38
2023-07-16T18:34:06.999Z,24.21
2023-07-16T18:36:33.713Z,24.00
2023-07-16T18:39:00.400Z,23.83
2023-07-16T18:41:27.068Z,23.70
2023-07-16T18:43:53.784Z,23.55
2023-07-16T18:46:20.846Z,23.42
2023-07-16T18:48:47.893Z,23.25
2023-07-16T18:51:14.776Z,23.11
2023-07-16T18:53:41.408Z,22.94
2023-07-16T18:56:08.088Z,22.79
2023-07-16T18:58:34.662Z,22.61
2023-07-16T19:01:02.354Z,22.46
2023-07-16T19:03:29.116Z,22.32
2023-07-16T19:05:55.878Z,22.13
2023-07-16T19:08:24.871Z,21.99
2023-07-16T19:10:51.666Z,21.88
2023-07-16T19:13:18.362Z,21.71
2023-07-16T19:15:45.045Z,21.57
2023-07-16T19:18:11.725Z,21.44
2023-07-16T19:20:39.083Z,21.31
2023-07-16T19:23:06.077Z,21.20
2023-07-16T19:25:33.391Z,21.08
2023-07-16T19:28:00.090Z,21.01
2023-07-16T19:30:26.753Z,20.91
2023-07-16T19:32:53.579Z,20.84
2023-07-16T19:35:20.365Z,20.79
2023-07-16T19:37:47.087Z,20.75
2023-07-16T19:40:13.811Z,20.65
2023-07-16T19:42:40.687Z,20.62
2023-07-16T19:45:08.105Z,20.56
2023-07-16T19:47:35.157Z,20.46
2023-07-16T19:50:06.129Z,20.38
2023-07-16T19:52:33.442Z,20.31
2023-07-16T19:55:04.441Z,20.24
2023-07-16T19:57:36.344Z,20.19
2023-07-16T20:00:12.448Z,20.11
2023-07-16T20:02:39.477Z,20.02
2023-07-16T20:05:06.730Z,19.94
2023-07-16T20:07:36.165Z,19.82
2023-07-16T20:10:06.821Z,19.71
2023-07-16T20:12:33.757Z,19.60
2023-07-16T20:15:00.606Z,19.51
2023-07-16T20:17:27.529Z,19.41
2023-07-16T20:19:54.291Z,19.33
2023-07-16T20:22:21.374Z,19.24
2023-07-16T20:24:47.937Z,19.18
2023-07-16T20:27:14.796Z,19.09
2023-07-16T20:29:41.392Z,19.01
2023-07-16T20:32:08.400Z,18.91
2023-07-16T20:34:35.782Z,18.79
2023-07-16T20:37:03.216Z,18.73
2023-07-16T20:39:30.570Z,18.68
2023-07-16T20:41:57.301Z,18.58
2023-07-16T20:44:23.935Z,18.48
2023-07-16T20:46:50.729Z,18.40
2023-07-16T20:49:17.417Z,18.34
2023-07-16T20:51:44.031Z,18.30
2023-07-16T20:54:11.121Z,18.24
2023-07-16T20:56:39.229Z,18.20
2023-07-16T20:59:06.035Z,18.14
2023-07-16T21:01:33.031Z,18.11
2023-07-16T21:04:04.013Z,18.09
2023-07-16T21:06:30.697Z,18.09
2023-07-16T21:08:57.413Z,18.04
2023-07-16T21:11:24.354Z,17.97
2023-07-16T21:13:51.583Z,17.94
2023-07-16T21:16:18.327Z,17.92
2023-07-16T21:18:45.844Z,17.89
2023-07-16T21:21:14.925Z,17.86
2023-07-16T21:23:41.835Z,17.87
2023-07-16T21:26:08.473Z,17.85
2023-07-16T21:28:35.160Z,17.86
2023-07-16T21:31:01.977Z,17.85
2023-07-16T21:33:28.660Z,17.83
2023-07-16T21:35:55.279Z,17.78
2023-07-16T21:38:21.895Z,17.73
2023-07-16T21:40:48.566Z,17.68
2023-07-16T21:43:16.108Z,17.63
2023-07-16T21:45:42.803Z,17.56
2023-07-16T21:48:09.719Z,17.52
2023-07-16T21:50:38.657Z,17.45
2023-07-16T21:53:14.584Z,17.41
2023-07-16T21:55:41.356Z,17.38
2023-07-16T21:58:08.124Z,17.36
2023-07-16T22:00:34.830Z,17.28
2023-07-16T22:03:01.636Z,17.22
2023-07-16T22:05:28.380Z,17.22
2023-07-16T22:07:55.220Z,17.21
2023-07-16T22:10:22.379Z,17.24
2023-07-16T22:12:49.087Z,17.22
2023-07-16T22:15:15.705Z,17.21
2023-07-16T22:17:43.371Z,17.17
2023-07-16T22:20:13.045Z,17.14
2023-07-16T22:22:40.723Z,17.10
2023-07-16T22:25:07.758Z,17.03
2023-07-16T22:27:34.527Z,17.00
2023-07-16T22:30:01.235Z,16.95
2023-07-16T22:32:28.049Z,16.88
2023-07-16T22:34:54.714Z,16.87
2023-07-16T22:37:21.361Z,16.81
2023-07-16T22:39:48.014Z,16.79
2023-07-16T22:42:15.568Z,16.76
2023-07-16T22:44:42.294Z,16.74
2023-07-16T22:47:08.967Z,16.69
2023-07-16T22:49:35.604Z,16.69
2023-07-16T22:52:03.968Z,16.64
2023-07-16T22:54:30.602Z,16.60
2023-07-16T22:56:57.217Z,16.57
2023-07-16T22:59:24.224Z,16.56
2023-07-16T23:01:51.783Z,16.56
2023-07-16T23:04:18.530Z,16.52
2023-07-16T23:06:45.760Z,16.53
2023-07-16T23:09:12.595Z,16.52
2023-07-16T23:11:39.242Z,16.49
2023-07-16T23:14:05.958Z,16.46
2023-07-16T23:16:32.675Z,16.43
2023-07-16T23:18:59.402Z,16.40
2023-07-16T23:21:27.193Z,16.36
2023-07-16T23:23:53.888Z,16.30
2023-07-16T23:26:21.135Z,16.28
2023-07-16T23:28:47.889Z,16.25
2023-07-16T23:31:14.647Z,16.21
2023-07-16T23:33:41.290Z,16.16
2023-07-16T23:36:08.019Z,16.15
2023-07-16T23:38:34.631Z,16.18
2023-07-16T23:41:01.362Z,16.13
2023-07-16T23:43:27.990Z,16.13
2023-07-16T23:45:54.775Z,16.15
2023-07-16T23:48:21.409Z,16.13
2023-07-16T23:50:48.411Z,16.18
2023-07-16T23:53:15.073Z,16.18
2023-07-16T23:55:42.108Z,16.26
2023-07-16T23:58:08.779Z,16.29
